Time;durP1;ratioP1;P1;durP2;ratioP2;P2;SDS_P1;SDS_P2;PMS_P1;PMS_P2;Temp;Humidity;BMP_temperature;BMP_pressure;BME280_temperature;BME280_humidity;BME280_pressure;Samples;Min_cycle;Max_cycle;Signal;HPM_P1;HPM_P2
2021/10/30 00:02:02;;;;;;;;;3.00;2.50;;;;;23.37;41.76;99969.19;5055747;28;45264;-66
2021/10/30 00:04:27;;;;;;;;;3.00;3.00;;;;;23.36;41.67;99960.44;5055717;28;45491;-67
2021/10/30 00:06:54;;;;;;;;;2.25;2.25;;;;;23.40;42.03;99972.25;5055621;28;46912;-66
2021/10/30 00:09:20;;;;;;;;;2.00;2.00;;;;;23.39;41.44;99960.00;5055258;28;45346;-66
2021/10/30 00:11:45;;;;;;;;;3.50;3.50;;;;;23.40;42.16;99952.84;5055451;28;45844;-66
2021/10/30 00:14:11;;;;;;;;;5.50;4.00;;;;;23.40;41.92;99958.16;5054991;28;45463;-67
2021/10/30 00:16:36;;;;;;;;;2.00;2.00;;;;;23.40;41.46;99955.50;5055237;28;45533;-66
2021/10/30 00:19:02;;;;;;;;;5.00;4.00;;;;;23.40;42.08;99956.31;5055112;28;45506;-66
2021/10/30 00:21:27;;;;;;;;;4.00;4.00;;;;;23.40;42.00;99956.31;5055332;28;45439;-66
2021/10/30 00:23:52;;;;;;;;;5.00;5.00;;;;;23.40;41.85;99952.84;5055126;28;45272;-66
2021/10/30 00:26:18;;;;;;;;;5.00;3.00;;;;;23.40;41.65;99942.22;5054921;28;46056;-66
2021/10/30 00:28:44;;;;;;;;;4.00;4.00;;;;;23.42;41.92;99928.75;5054753;28;45573;-66
2021/10/30 00:31:10;;;;;;;;;3.75;2.75;;;;;23.42;41.91;99931.41;5055765;28;45460;-66
2021/10/30 00:33:35;;;;;;;;;2.75;2.75;;;;;23.42;41.99;99936.72;5054977;28;45489;-66
2021/10/30 00:36:01;;;;;;;;;3.00;3.00;;;;;23.43;41.91;99928.53;5054751;28;46115;-66
2021/10/30 00:38:26;;;;;;;;;4.00;2.50;;;;;23.37;42.14;99921.41;5055160;28;45412;-66
2021/10/30 00:40:51;;;;;;;;;2.50;2.50;;;;;23.34;41.77;99913.91;5054000;28;45443;-66
2021/10/30 00:43:17;;;;;;;;;4.00;4.00;;;;;23.44;42.08;99918.75;5040300;28;45544;-66
2021/10/30 00:45:47;;;;;;;;;3.00;3.00;;;;;23.44;42.05;99914.25;5041195;28;45529;-66
2021/10/30 00:48:13;;;;;;;;;3.25;2.75;;;;;23.42;41.59;99895.03;5047874;28;45447;-67
2021/10/30 00:50:39;;;;;;;;;3.00;3.00;;;;;23.43;42.10;99888.72;5054234;28;45344;-66
2021/10/30 00:53:05;;;;;;;;;4.25;4.00;;;;;23.42;41.66;99884.44;5053982;28;45308;-66
2021/10/30 00:55:31;;;;;;;;;5.00;4.00;;;;;23.43;42.09;99880.75;5054586;28;46189;-66
2021/10/30 00:57:59;;;;;;;;;5.00;3.00;;;;;23.40;41.43;99879.34;5054639;28;45328;-66
2021/10/30 01:00:25;;;;;;;;;2.50;2.50;;;;;23.37;41.57;99868.31;5053870;28;45587;-67
2021/10/30 01:02:51;;;;;;;;;3.00;3.00;;;;;23.42;42.03;99867.72;5054407;28;45620;-66
2021/10/30 01:05:17;;;;;;;;;2.50;2.50;;;;;23.42;41.83;99867.72;5054248;28;46451;-66
2021/10/30 01:07:42;;;;;;;;;4.00;3.75;;;;;23.41;41.93;99869.53;5054467;28;45296;-66
2021/10/30 01:10:08;;;;;;;;;3.50;3.50;;;;;23.41;41.92;99853.63;5054031;28;45701;-65
2021/10/30 01:12:33;;;;;;;;;2.50;2.50;;;;;23.40;41.91;99860.75;5054685;28;45331;-66
2021/10/30 01:15:01;;;;;;;;;2.50;2.50;;;;;23.34;41.89;99845.69;5054112;28;47180;-66
2021/10/30 01:17:27;;;;;;;;;4.00;3.00;;;;;23.36;41.54;99845.47;5056220;28;45332;-66
2021/10/30 01:19:54;;;;;;;;;2.75;2.00;;;;;23.41;42.10;99853.63;5057973;28;45750;-66
2021/10/30 01:22:21;;;;;;;;;3.25;3.25;;;;;23.40;42.07;99844.00;5058623;28;45352;-66
2021/10/30 01:24:47;;;;;;;;;2.25;2.25;;;;;23.39;41.51;99843.19;5057336;28;47163;-66
2021/10/30 01:27:14;;;;;;;;;2.25;2.00;;;;;23.35;41.80;99831.38;5057371;28;45482;-67
2021/10/30 01:29:40;;;;;;;;;3.25;2.50;;;;;23.40;42.06;99830.75;5086221;27;45366;-66
2021/10/30 01:32:05;;;;;;;;;4.50;3.00;;;;;23.40;41.96;99838.72;5057786;28;45493;-66
2021/10/30 01:34:31;;;;;;;;;4.00;4.00;;;;;23.31;41.65;99814.28;5057763;28;45369;-66
2021/10/30 01:36:56;;;;;;;;;2.75;2.75;;;;;23.39;41.43;99821.97;5057996;28;45465;-66
2021/10/30 01:39:24;;;;;;;;;3.25;2.50;;;;;23.39;41.54;99814.00;5057319;28;45360;-66
2021/10/30 01:41:50;;;;;;;;;3.00;3.00;;;;;23.39;41.44;99810.56;5057790;28;45265;-66
2021/10/30 01:44:15;;;;;;;;;3.25;2.25;;;;;23.40;41.42;99809.50;5057525;28;45508;-66
2021/10/30 01:46:40;;;;;;;;;2.50;2.50;;;;;23.39;41.47;99800.72;5057540;28;45575;-66
2021/10/30 01:49:06;;;;;;;;;3.00;3.00;;;;;23.39;42.12;99797.28;5058074;28;45610;-66
2021/10/30 01:51:31;;;;;;;;;3.50;2.00;;;;;23.39;41.99;99792.75;5057510;28;45569;-66
2021/10/30 01:53:58;;;;;;;;;3.00;2.00;;;;;23.39;41.47;99781.34;5056938;28;47014;-66
2021/10/30 01:56:23;;;;;;;;;2.00;2.00;;;;;23.41;41.47;99784.59;5057365;28;45288;-66
2021/10/30 01:58:49;;;;;;;;;2.00;2.00;;;;;23.40;41.48;99783.78;5057533;28;46149;-66
2021/10/30 02:01:14;;;;;;;;;3.50;3.50;;;;;23.41;41.87;99781.94;5057826;28;45499;-66
2021/10/30 02:03:39;;;;;;;;;3.00;3.00;;;;;23.29;41.54;99760.59;5057189;28;45589;-65
2021/10/30 02:06:06;;;;;;;;;3.50;3.50;;;;;23.42;41.88;99780.13;5057135;28;45401;-66
2021/10/30 02:08:32;;;;;;;;;3.00;3.00;;;;;23.41;41.84;99768.69;5057041;28;45299;-66
2021/10/30 02:10:58;;;;;;;;;2.75;2.75;;;;;23.41;41.74;99763.38;5057352;28;45292;-67
2021/10/30 02:13:24;;;;;;;;;2.00;2.00;;;;;23.38;41.72;99750.53;5057933;28;47369;-66
2021/10/30 02:15:49;;;;;;;;;3.25;3.25;;;;;23.39;41.75;99742.34;5056862;28;45297;-66
2021/10/30 02:18:15;;;;;;;;;4.00;4.00;;;;;23.42;41.53;99732.34;5057210;28;45265;-66
2021/10/30 02:20:41;;;;;;;;;2.50;2.50;;;;;23.40;41.81;99728.03;5055919;28;45485;-66
2021/10/30 02:23:07;;;;;;;;;4.00;3.50;;;;;23.42;42.14;99721.72;5056550;28;45504;-66
2021/10/30 02:25:33;;;;;;;;;2.25;2.25;;;;;23.22;41.97;99696.13;5057314;28;45174;-66
2021/10/30 02:27:58;;;;;;;;;3.00;3.00;;;;;23.40;41.85;99709.47;5055456;28;45289;-67
2021/10/30 02:30:24;;;;;;;;;3.00;3.00;;;;;23.42;41.73;99716.41;5056626;28;45360;-66
2021/10/30 02:32:50;;;;;;;;;2.50;2.50;;;;;23.43;42.12;99718.84;5056923;28;45894;-66
2021/10/30 02:35:16;;;;;;;;;2.25;2.25;;;;;23.40;41.59;99704.16;5056706;28;45486;-66
2021/10/30 02:37:42;;;;;;;;;2.75;2.00;;;;;23.43;41.56;99694.94;5056126;28;45248;-66
2021/10/30 02:40:08;;;;;;;;;3.25;3.00;;;;;23.42;41.91;99698.63;5057464;28;45422;-66
2021/10/30 02:42:34;;;;;;;;;1.25;1.25;;;;;23.42;41.84;99690.66;5056526;28;46148;-66
2021/10/30 02:45:00;;;;;;;;;3.00;3.00;;;;;23.13;41.70;99637.25;5072245;28;45307;-66
2021/10/30 02:47:26;;;;;;;;;3.75;3.75;;;;;23.40;41.62;99669.66;5056607;28;45330;-62
2021/10/30 02:49:52;;;;;;;;;2.50;2.00;;;;;23.41;42.14;99667.81;5056781;28;45539;-62
2021/10/30 02:52:17;;;;;;;;;3.75;3.75;;;;;23.41;41.92;99659.84;5056549;28;46207;-62
2021/10/30 02:54:43;;;;;;;;;2.00;2.00;;;;;23.41;42.29;99659.84;5056349;28;45406;-62
2021/10/30 02:57:08;;;;;;;;;3.50;2.75;;;;;23.39;41.67;99662.72;5071833;28;45487;-62
2021/10/30 02:59:33;;;;;;;;;4.00;3.00;;;;;23.39;41.32;99654.75;5056576;28;45458;-62
2021/10/30 03:01:59;;;;;;;;;2.75;2.75;;;;;23.40;41.99;99652.91;5056325;28;45609;-62
2021/10/30 03:04:24;;;;;;;;;3.50;3.00;;;;;23.40;41.71;99651.06;5056936;28;45283;-62
2021/10/30 03:06:50;;;;;;;;;4.75;4.00;;;;;23.39;42.22;99646.00;5056059;28;45327;-62
2021/10/30 03:09:16;;;;;;;;;4.00;4.00;;;;;23.40;42.01;99640.44;5056055;28;45328;-62
2021/10/30 03:11:41;;;;;;;;;4.00;4.00;;;;;23.37;41.77;99630.28;5056084;28;46428;-63
2021/10/30 03:14:07;;;;;;;;;2.75;2.75;;;;;23.37;42.14;99617.00;5056320;28;45425;-62
2021/10/30 03:16:32;;;;;;;;;4.50;3.00;;;;;23.40;41.70;99624.53;5056363;28;45333;-63
2021/10/30 03:18:58;;;;;;;;;3.00;3.00;;;;;23.39;41.70;99630.06;5056577;28;45656;-62
2021/10/30 03:21:23;;;;;;;;;2.00;2.00;;;;;23.40;41.61;99627.19;5055424;28;46474;-62
2021/10/30 03:23:49;;;;;;;;;3.75;3.75;;;;;23.39;41.96;99606.19;5055935;28;45470;-62
2021/10/30 03:26:15;;;;;;;;;3.25;3.25;;;;;23.34;41.65;99603.38;5056123;28;45431;-63
2021/10/30 03:28:40;;;;;;;;;3.00;3.00;;;;;23.39;42.21;99608.84;5056235;28;45365;-62
2021/10/30 03:31:05;;;;;;;;;7.00;5.00;;;;;23.39;41.63;99604.31;5056335;28;45501;-62
2021/10/30 03:33:32;;;;;;;;;4.00;3.25;;;;;23.41;41.68;99604.13;5055185;28;45377;-62
2021/10/30 03:35:57;;;;;;;;;3.25;3.25;;;;;23.42;41.55;99604.94;5055496;28;45463;-62
2021/10/30 03:38:23;;;;;;;;;4.25;3.50;;;;;23.37;41.57;99590.47;5055813;28;45585;-63
2021/10/30 03:40:50;;;;;;;;;4.00;2.50;;;;;23.42;41.90;99594.31;5055308;28;46209;-62
2021/10/30 03:43:16;;;;;;;;;3.25;3.25;;;;;23.41;41.77;99601.47;5056313;28;45339;-62
2021/10/30 03:45:42;;;;;;;;;3.75;3.75;;;;;23.41;42.21;99588.19;5055619;28;45476;-62
2021/10/30 03:48:08;;;;;;;;;4.00;4.00;;;;;23.38;41.81;99589.44;5055499;28;45531;-62
2021/10/30 03:50:33;;;;;;;;;4.00;4.00;;;;;23.35;42.33;99567.81;5055057;28;47191;-62
2021/10/30 03:52:59;;;;;;;;;3.75;3.75;;;;;23.35;41.65;99578.44;5055684;28;45323;-63
2021/10/30 03:55:25;;;;;;;;;3.25;3.25;;;;;23.42;41.71;99600.41;5056242;28;45261;-62
2021/10/30 03:57:50;;;;;;;;;3.50;3.50;;;;;23.43;41.61;99604.69;5055533;28;45644;-62
2021/10/30 04:00:15;;;;;;;;;4.00;3.00;;;;;23.40;41.97;99610.44;5055020;28;45982;-62
2021/10/30 04:02:41;;;;;;;;;6.25;4.50;;;;;23.38;41.90;99600.06;5055406;28;45512;-62
2021/10/30 04:05:08;;;;;;;;;4.00;3.75;;;;;23.37;42.03;99589.63;5055283;28;45374;-62
2021/10/30 04:07:33;;;;;;;;;4.00;3.00;;;;;23.40;41.74;99592.69;5055742;28;45345;-62
2021/10/30 04:09:59;;;;;;;;;3.25;3.25;;;;;23.40;42.01;99595.34;5054498;28;46013;-63
2021/10/30 04:12:24;;;;;;;;;4.25;3.50;;;;;23.38;42.32;99597.41;5055277;28;45293;-62
2021/10/30 04:14:49;;;;;;;;;3.50;3.50;;;;;23.39;41.69;99600.88;5055416;28;45274;-62
2021/10/30 04:17:15;;;;;;;;;4.25;3.50;;;;;23.40;41.96;99595.34;5055230;28;45431;-63
2021/10/30 04:19:40;;;;;;;;;4.25;3.00;;;;;23.38;41.60;99601.88;5053717;28;45953;-62
2021/10/30 04:22:06;;;;;;;;;3.00;3.00;;;;;23.40;41.92;99603.28;5055696;28;45415;-62
2021/10/30 04:24:31;;;;;;;;;4.50;3.50;;;;;23.36;42.26;99588.03;5055220;28;45394;-62
2021/10/30 04:26:57;;;;;;;;;4.00;4.00;;;;;23.37;42.23;99590.47;5055066;28;45363;-62
2021/10/30 04:29:22;;;;;;;;;4.00;3.00;;;;;23.40;41.84;99583.91;5055035;28;45458;-62
2021/10/30 04:31:50;;;;;;;;;3.50;3.50;;;;;23.41;42.05;99585.53;5053727;28;47873;-62
2021/10/30 04:34:19;;;;;;;;;3.50;3.25;;;;;23.40;42.04;99583.91;5055326;28;45386;-63
2021/10/30 04:36:47;;;;;;;;;4.00;4.00;;;;;23.40;42.25;99584.72;5054838;28;45457;-62
2021/10/30 04:39:12;;;;;;;;;3.00;3.00;;;;;23.41;42.41;99590.84;5054540;28;46610;-63
2021/10/30 04:41:41;;;;;;;;;4.50;4.50;;;;;23.39;42.16;99588.38;5054766;28;45403;-62
2021/10/30 04:44:06;;;;;;;;;5.00;4.00;;;;;23.37;42.09;99587.81;5055032;28;45559;-62
2021/10/30 04:46:31;;;;;;;;;3.50;3.50;;;;;23.39;41.84;99590.25;5054905;28;45486;-62
2021/10/30 04:48:57;;;;;;;;;3.25;3.25;;;;;23.34;41.64;99572.31;5054623;28;46293;-63
2021/10/30 04:51:24;;;;;;;;;3.25;3.25;;;;;23.37;41.91;99581.69;5054627;28;45359;-62
2021/10/30 04:53:49;;;;;;;;;4.00;4.00;;;;;23.38;42.22;99572.69;5058488;28;45300;-62
2021/10/30 04:56:14;;;;;;;;;5.50;3.00;;;;;23.39;42.24;99572.47;5058307;28;45336;-64
2021/10/30 04:58:44;;;;;;;;;4.25;4.25;;;;;23.40;42.20;99560.00;5058409;28;45335;-62
2021/10/30 05:01:14;;;;;;;;;4.50;4.50;;;;;23.40;42.07;99570.63;5057047;28;45505;-62
2021/10/30 05:03:41;;;;;;;;;4.00;4.00;;;;;23.38;42.12;99565.56;5057859;28;45516;-62
2021/10/30 05:06:10;;;;;;;;;3.50;3.50;;;;;23.39;42.23;99569.81;5058196;28;45391;-62
2021/10/30 05:08:36;;;;;;;;;3.00;3.00;;;;;23.40;42.20;99586.56;5057930;28;45529;-62
2021/10/30 05:11:02;;;;;;;;;3.25;3.00;;;;;23.39;42.08;99580.44;5058135;28;45467;-62
2021/10/30 05:13:28;;;;;;;;;2.50;2.50;;;;;23.35;41.79;99573.13;5058816;28;45589;-62
2021/10/30 05:15:53;;;;;;;;;4.00;4.00;;;;;23.40;41.81;99583.91;5058060;28;45660;-62
2021/10/30 05:18:18;;;;;;;;;4.00;4.00;;;;;23.38;41.70;99575.34;5057527;28;46285;-62
2021/10/30 05:20:44;;;;;;;;;4.25;4.25;;;;;23.39;41.98;99569.81;5057835;28;45509;-62
2021/10/30 05:23:09;;;;;;;;;5.00;3.75;;;;;23.43;41.81;99572.84;5058214;28;45291;-62
2021/10/30 05:25:35;;;;;;;;;4.00;4.00;;;;;23.40;42.07;99560.00;5058144;28;45435;-63
2021/10/30 05:28:00;;;;;;;;;4.50;4.00;;;;;23.40;41.67;99557.34;5058246;28;47293;-62
2021/10/30 05:30:25;;;;;;;;;2.50;2.50;;;;;23.39;42.28;99540.63;5057222;28;45333;-62
2021/10/30 05:32:51;;;;;;;;;5.00;5.00;;;;;23.41;42.32;99545.72;5057612;28;45540;-62
2021/10/30 05:35:16;;;;;;;;;3.50;3.50;;;;;23.43;41.95;99538.34;5057610;28;45426;-62
2021/10/30 05:37:42;;;;;;;;;3.00;3.00;;;;;23.42;42.03;99533.25;5058027;28;45618;-62
2021/10/30 05:40:09;;;;;;;;;2.50;2.50;;;;;23.40;42.04;99528.16;5056276;28;45339;-62
2021/10/30 05:42:36;;;;;;;;;4.75;3.25;;;;;23.42;41.73;99535.91;5057716;28;45482;-62
2021/10/30 05:45:05;;;;;;;;;3.25;3.25;;;;;23.40;42.23;99528.16;5057481;28;45489;-62
2021/10/30 05:47:33;;;;;;;;;2.50;2.50;;;;;23.38;42.20;99525.75;5057039;28;46474;-62
2021/10/30 05:49:58;;;;;;;;;4.00;4.00;;;;;23.39;41.88;99522.03;5057582;28;45408;-62
2021/10/30 05:52:24;;;;;;;;;4.00;4.00;;;;;23.38;42.35;99520.44;5058331;28;45311;-61
2021/10/30 05:54:49;;;;;;;;;3.50;3.50;;;;;23.42;41.87;99520.78;5057643;28;45281;-62
2021/10/30 05:57:14;;;;;;;;;4.00;4.00;;;;;23.40;41.71;99515.72;5056629;28;45548;-62
2021/10/30 05:59:40;;;;;;;;;4.00;4.00;;;;;23.40;41.71;99522.84;5057409;28;47421;-62
2021/10/30 06:02:06;;;;;;;;;4.00;4.00;;;;;23.41;41.77;99521.84;5057322;28;45497;-62
2021/10/30 06:04:32;;;;;;;;;4.50;4.50;;;;;23.40;42.03;99499.78;5057383;28;45474;-62
2021/10/30 06:06:57;;;;;;;;;3.00;3.00;;;;;23.42;41.80;99501.41;5056743;28;45419;-62
2021/10/30 06:09:22;;;;;;;;;3.00;2.50;;;;;23.40;42.14;99501.63;5057230;28;45340;-62
2021/10/30 06:11:48;;;;;;;;;3.00;3.00;;;;;23.40;42.04;99491.81;5057254;28;45300;-62
2021/10/30 06:14:13;;;;;;;;;5.25;5.25;;;;;23.41;42.11;99487.31;5057339;28;45296;-63
2021/10/30 06:16:39;;;;;;;;;4.75;4.00;;;;;23.38;41.89;99491.25;5056737;28;45533;-62
2021/10/30 06:19:05;;;;;;;;;4.00;3.25;;;;;23.38;42.30;99493.91;5057553;28;45787;-62
2021/10/30 06:21:30;;;;;;;;;3.00;3.00;;;;;23.38;41.71;99488.59;5057152;28;45529;-62
2021/10/30 06:23:58;;;;;;;;;3.00;3.00;;;;;23.39;42.31;99476.13;5057045;28;45422;-63
2021/10/30 06:26:25;;;;;;;;;4.00;4.00;;;;;23.37;41.70;99479.00;5056836;28;46611;-62
2021/10/30 06:28:51;;;;;;;;;5.25;3.50;;;;;23.40;41.87;99478.56;5056898;28;45423;-62
2021/10/30 06:31:17;;;;;;;;;4.25;4.25;;;;;23.35;41.98;99474.94;5057166;28;45512;-62
2021/10/30 06:33:42;;;;;;;;;3.00;2.25;;;;;23.39;42.07;99476.13;5056813;28;45360;-62
2021/10/30 06:36:08;;;;;;;;;3.75;3.75;;;;;23.39;41.74;99481.44;5056530;28;45394;-62
2021/10/30 06:38:34;;;;;;;;;4.00;3.00;;;;;23.40;42.44;99483.84;5056646;28;45474;-62
2021/10/30 06:41:01;;;;;;;;;3.75;3.50;;;;;23.38;42.06;99480.63;5056695;28;45225;-62
2021/10/30 06:43:28;;;;;;;;;3.00;3.00;;;;;23.40;42.11;99483.03;5056047;28;45506;-62
2021/10/30 06:45:54;;;;;;;;;4.25;4.25;;;;;23.42;41.87;99490.81;5056075;28;45988;-63
2021/10/30 06:48:20;;;;;;;;;5.00;3.75;;;;;23.36;41.93;99492.50;5056200;28;45418;-62
2021/10/30 06:50:45;;;;;;;;;4.25;4.25;;;;;23.40;41.87;99502.44;5056593;28;45600;-62
2021/10/30 06:53:11;;;;;;;;;5.25;5.25;;;;;23.38;41.83;99506.34;5056588;28;45582;-62
2021/10/30 06:55:36;;;;;;;;;4.00;4.00;;;;;23.40;41.91;99512.25;5056721;28;45473;-63
2021/10/30 06:58:01;;;;;;;;;3.25;3.25;;;;;23.39;41.69;99506.13;5056875;28;45296;-63
2021/10/30 07:00:27;;;;;;;;;5.00;4.00;;;;;23.40;42.22;99506.94;5056097;28;45592;-62
2021/10/30 07:02:52;;;;;;;;;4.00;4.00;;;;;23.44;42.38;99517.94;5056464;28;45291;-63
2021/10/30 07:05:20;;;;;;;;;3.75;3.75;;;;;23.44;41.80;99507.31;5056133;28;46118;-62
2021/10/30 07:07:46;;;;;;;;;4.50;4.00;;;;;23.39;42.14;99498.16;5056312;28;45558;-62
2021/10/30 07:10:11;;;;;;;;;3.25;3.25;;;;;23.40;41.97;99501.63;5056935;28;45339;-62
2021/10/30 07:12:38;;;;;;;;;3.00;3.00;;;;;23.46;42.31;99526.47;5055990;28;45441;-61
2021/10/30 07:15:09;;;;;;;;;4.75;4.75;;;;;23.44;41.75;99524.06;5054999;28;47554;-62
2021/10/30 07:17:35;;;;;;;;;4.25;4.00;;;;;23.45;42.12;99525.66;5056186;28;45289;-63
2021/10/30 07:20:00;;;;;;;;;3.50;3.50;;;;;23.47;42.41;99536.06;5056275;28;45422;-62
2021/10/30 07:22:26;;;;;;;;;2.75;2.75;;;;;23.45;42.29;99524.84;5056935;28;45475;-62
2021/10/30 07:24:51;;;;;;;;;4.00;2.25;;;;;23.45;41.85;99528.31;5055828;28;46364;-62
2021/10/30 07:27:17;;;;;;;;;4.25;4.25;;;;;23.48;41.90;99525.22;5055475;28;45446;-63
2021/10/30 07:29:48;;;;;;;;;4.25;4.25;;;;;23.47;42.01;99523.59;5055840;28;45366;-62
2021/10/30 07:32:17;;;;;;;;;3.00;3.00;;;;;23.45;41.81;99522.19;5055561;28;45632;-62
2021/10/30 07:34:43;;;;;;;;;4.25;4.25;;;;;23.45;42.16;99527.50;5055735;28;45461;-63
2021/10/30 07:37:08;;;;;;;;;4.00;4.00;;;;;23.47;42.17;99533.41;5056036;28;45997;-62
2021/10/30 07:39:34;;;;;;;;;4.00;4.00;;;;;23.45;42.26;99530.16;5055840;28;45506;-62
2021/10/30 07:42:01;;;;;;;;;3.00;3.00;;;;;23.45;41.92;99541.56;5055419;28;45622;-62
2021/10/30 07:44:27;;;;;;;;;6.00;6.00;;;;;23.43;42.12;99522.41;5055780;28;46372;-62
2021/10/30 07:46:52;;;;;;;;;4.00;2.75;;;;;23.44;42.41;99518.75;5055541;28;45393;-62
2021/10/30 07:49:18;;;;;;;;;3.00;3.00;;;;;23.47;42.30;99520.13;5056351;28;45360;-62
2021/10/30 07:51:43;;;;;;;;;3.50;3.50;;;;;23.45;42.13;99527.50;5055770;28;45362;-62
2021/10/30 07:54:09;;;;;;;;;3.00;3.00;;;;;23.44;42.46;99532.00;5055219;28;46291;-62
2021/10/30 07:56:34;;;;;;;;;5.00;5.00;;;;;23.45;41.73;99532.78;5054967;28;45382;-62
2021/10/30 07:58:59;;;;;;;;;5.00;4.00;;;;;23.44;42.51;99533.84;5055475;28;45918;-63
2021/10/30 08:01:25;;;;;;;;;4.00;4.00;;;;;23.44;42.33;99536.50;5056492;28;45476;-62
2021/10/30 08:03:50;;;;;;;;;4.00;4.00;;;;;23.41;42.00;99532.44;5055273;28;45329;-62
2021/10/30 08:06:16;;;;;;;;;4.50;4.50;;;;;23.44;42.46;99552.44;5055322;28;45501;-63
2021/10/30 08:08:41;;;;;;;;;5.00;5.00;;;;;23.38;41.87;99548.81;5055398;28;45421;-62
2021/10/30 08:11:06;;;;;;;;;4.00;4.00;;;;;23.43;42.36;99562.22;5055157;28;45232;-62
2021/10/30 08:13:32;;;;;;;;;5.00;5.00;;;;;23.45;41.95;99565.47;5055552;28;45367;-62
2021/10/30 08:15:57;;;;;;;;;2.00;2.00;;;;;23.44;41.82;99577.13;5055498;28;45379;-62
2021/10/30 08:18:24;;;;;;;;;3.00;3.00;;;;;23.39;41.97;99577.78;5055082;28;45604;-62
2021/10/30 08:20:49;;;;;;;;;3.00;3.00;;;;;23.40;41.84;99589.22;5055434;28;45609;-62
2021/10/30 08:23:15;;;;;;;;;3.00;3.00;;;;;23.43;41.95;99602.03;5054852;28;45498;-63
2021/10/30 08:25:40;;;;;;;;;3.50;3.50;;;;;23.43;42.04;99610.00;5054975;28;45320;-63
2021/10/30 08:28:05;;;;;;;;;3.00;3.00;;;;;23.43;42.02;99612.66;5055633;28;45536;-63
2021/10/30 08:30:31;;;;;;;;;3.25;3.25;;;;;23.41;42.29;99604.13;5055158;28;45589;-62
2021/10/30 08:32:56;;;;;;;;;6.00;5.00;;;;;23.45;42.38;99609.78;5054760;28;46319;-63
2021/10/30 08:35:22;;;;;;;;;4.00;3.25;;;;;23.39;42.20;99599.00;5054833;28;45584;-63
2021/10/30 08:37:47;;;;;;;;;3.00;3.00;;;;;23.39;42.08;99599.00;5055212;28;45305;-63
2021/10/30 08:40:14;;;;;;;;;4.00;4.00;;;;;23.44;41.97;99606.34;5053915;28;45537;-63
2021/10/30 08:42:50;;;;;;;;;4.25;4.25;;;;;23.41;41.88;99596.16;5054808;28;45439;-63
2021/10/30 08:45:16;;;;;;;;;4.50;4.50;;;;;23.45;42.23;99607.94;5054381;28;45374;-62
2021/10/30 08:47:46;;;;;;;;;4.00;4.00;;;;;23.44;42.01;99609.00;5054483;28;45478;-63
2021/10/30 08:50:13;;;;;;;;;4.50;4.50;;;;;23.42;41.82;99605.72;5054553;28;45543;-63
2021/10/30 08:52:39;;;;;;;;;4.50;4.50;;;;;23.45;42.14;99607.13;5054656;28;45631;-62
2021/10/30 08:55:09;;;;;;;;;4.00;4.00;;;;;23.38;42.20;99600.06;5054377;28;45348;-62
2021/10/30 08:57:35;;;;;;;;;5.25;4.25;;;;;23.45;42.39;99607.13;5054729;28;45465;-63
2021/10/30 09:00:21;;;;;;;;;3.00;3.00;;;;;23.47;42.34;99615.69;5054657;28;45556;-63
2021/10/30 09:02:54;;;;;;;;;4.00;4.00;;;;;23.27;42.50;99585.66;5054369;28;46312;-63
2021/10/30 09:05:23;;;;;;;;;4.00;4.00;;;;;23.39;42.46;99600.88;5070171;28;45386;-63
2021/10/30 09:07:54;;;;;;;;;4.00;4.00;;;;;23.33;41.88;99593.78;5054520;28;45320;-63
2021/10/30 09:10:26;;;;;;;;;3.50;2.25;;;;;23.43;41.87;99604.69;5054873;28;45558;-63
2021/10/30 09:12:54;;;;;;;;;5.00;5.00;;;;;23.46;42.58;99600.78;5054231;28;45437;-63
2021/10/30 09:15:36;;;;;;;;;4.75;4.00;;;;;23.47;42.02;99610.38;5054174;28;45354;-63
2021/10/30 09:18:04;;;;;;;;;4.50;4.50;;;;;23.49;41.99;99613.63;5069892;28;45277;-64
2021/10/30 09:20:37;;;;;;;;;3.50;3.50;;;;;23.41;42.20;99596.16;5054442;28;45549;-63
2021/10/30 09:23:08;;;;;;;;;7.00;4.25;;;;;23.40;42.46;99599.81;5038936;28;45787;-63
2021/10/30 09:25:33;;;;;;;;;4.00;3.50;;;;;23.46;41.94;99606.09;5054677;28;45371;-64
2021/10/30 09:28:01;;;;;;;;;4.00;3.00;;;;;23.44;42.33;99609.00;5054523;28;45443;-63
2021/10/30 09:30:31;;;;;;;;;4.25;4.25;;;;;23.44;42.40;99602.88;5054208;28;45307;-63
2021/10/30 09:33:04;;;;;;;;;4.00;4.00;;;;;23.48;42.16;99614.66;5053758;28;45588;-63
2021/10/30 09:35:44;;;;;;;;;4.00;4.00;;;;;23.48;42.36;99622.63;5053959;28;45586;-63
2021/10/30 09:38:26;;;;;;;;;4.00;4.00;;;;;23.40;41.88;99605.13;5040861;28;45458;-63
2021/10/30 09:40:52;;;;;;;;;3.50;3.50;;;;;23.48;42.49;99625.28;5056439;28;45540;-63
2021/10/30 09:43:20;;;;;;;;;3.00;3.00;;;;;23.42;42.07;99616.34;5057879;28;46260;-63
2021/10/30 09:45:51;;;;;;;;;3.00;3.00;;;;;23.47;42.60;99626.31;5057206;28;45545;-63
2021/10/30 09:48:22;;;;;;;;;4.00;4.00;;;;;23.47;42.26;99628.97;5072848;28;45349;-64
2021/10/30 09:50:52;;;;;;;;;4.00;4.00;;;;;23.47;42.29;99626.31;5057497;28;45594;-63
2021/10/30 09:53:26;;;;;;;;;5.00;5.00;;;;;23.46;42.23;99630.81;5057005;28;45358;-63
2021/10/30 09:55:55;;;;;;;;;3.25;3.25;;;;;23.44;42.23;99626.75;5057042;28;45358;-63
2021/10/30 09:58:34;;;;;;;;;6.00;6.00;;;;;23.48;42.48;99635.88;5058232;28;45324;-63
2021/10/30 10:01:20;;;;;;;;;3.00;3.00;;;;;23.47;42.33;99639.59;5057850;28;45501;-63
2021/10/30 10:03:49;;;;;;;;;3.00;3.00;;;;;23.40;41.90;99624.53;5056688;28;45416;-63
2021/10/30 10:06:18;;;;;;;;;3.00;3.00;;;;;23.46;42.09;99628.16;5056937;28;45472;-64
2021/10/30 10:08:46;;;;;;;;;4.00;4.00;;;;;23.45;41.96;99634.47;5056809;28;45494;-64
2021/10/30 10:11:15;;;;;;;;;6.00;3.50;;;;;23.46;42.43;99635.31;5057222;28;45379;-63
2021/10/30 10:13:43;;;;;;;;;4.25;4.25;;;;;23.45;42.00;99628.34;5056696;28;45377;-63
2021/10/30 10:16:11;;;;;;;;;5.00;5.00;;;;;23.45;42.20;99629.16;5055447;28;45717;-63
2021/10/30 10:18:38;;;;;;;;;5.75;5.00;;;;;23.39;42.12;99611.50;5056908;28;45386;-63
2021/10/30 10:21:04;;;;;;;;;5.00;5.00;;;;;23.46;42.34;99627.34;5057042;28;45489;-63
2021/10/30 10:23:33;;;;;;;;;1.25;1.25;;;;;23.39;42.45;99609.63;5056865;28;45371;-63
2021/10/30 10:25:58;;;;;;;;;4.00;3.25;;;;;23.46;42.63;99627.34;5040987;28;45411;-63
2021/10/30 10:28:33;;;;;;;;;5.00;5.00;;;;;23.47;42.59;99618.34;5053390;28;45273;-62
2021/10/30 10:31:04;;;;;;;;;3.50;3.50;;;;;23.46;42.71;99614.88;5056266;28;45553;-63
2021/10/30 10:33:30;;;;;;;;;5.00;4.00;;;;;23.46;42.33;99612.22;5056581;28;45436;-63
2021/10/30 10:36:13;;;;;;;;;4.25;4.25;;;;;23.48;42.15;99619.97;5056230;28;45574;-63
2021/10/30 10:38:57;;;;;;;;;3.00;3.00;;;;;23.47;42.57;99634.28;5056663;28;45258;-63
2021/10/30 10:41:38;;;;;;;;;5.75;5.00;;;;;23.47;41.93;99632.41;5056698;28;45414;-63
2021/10/30 10:44:08;;;;;;;;;2.75;2.75;;;;;23.48;42.39;99644.66;5041441;28;45436;-63
2021/10/30 10:46:42;;;;;;;;;5.00;4.25;;;;;23.46;42.30;99637.97;5055127;28;45425;-63
2021/10/30 10:49:30;;;;;;;;;4.00;3.00;;;;;23.49;42.68;99643.69;5055995;28;45269;-63
2021/10/30 10:52:15;;;;;;;;;4.00;4.00;;;;;23.45;42.48;99639.78;5056481;28;45275;-63
2021/10/30 10:54:55;;;;;;;;;5.00;5.00;;;;;23.48;42.60;99652.63;5056036;28;45517;-63
2021/10/30 10:57:46;;;;;;;;;3.75;3.75;;;;;23.48;42.33;99644.66;5056214;28;45551;-63
2021/10/30 11:00:13;;;;;;;;;3.00;3.00;;;;;23.48;42.45;99654.47;5056394;28;45281;-63
2021/10/30 11:02:44;;;;;;;;;4.00;4.00;;;;;23.47;42.29;99650.22;5056328;28;45509;-63
2021/10/30 11:05:14;;;;;;;;;4.25;3.25;;;;;23.48;42.31;99657.13;5055896;28;45417;-63
2021/10/30 11:07:42;;;;;;;;;3.00;3.00;;;;;23.45;42.40;99655.72;5056339;28;45655;-64
2021/10/30 11:10:10;;;;;;;;;5.25;5.00;;;;;23.47;42.47;99651.00;5056768;28;45303;-63
2021/10/30 11:12:36;;;;;;;;;5.00;5.00;;;;;23.38;41.99;99645.19;5056261;28;45510;-63
2021/10/30 11:15:40;;;;;;;;;4.00;4.00;;;;;23.47;42.16;99658.16;5055804;28;46243;-63
2021/10/30 11:21:05;;;;;;;;;6.00;6.00;;;;;23.48;42.32;99665.91;5003544;28;46025;-62
2021/10/30 11:23:32;;;;;;;;;3.50;3.50;;;;;23.47;42.75;99672.22;4987001;27;45371;-62
2021/10/30 11:26:11;;;;;;;;;3.75;3.00;;;;;23.48;42.26;99676.53;4971820;28;47813;-63
2021/10/30 11:28:37;;;;;;;;;4.00;4.00;;;;;23.47;42.33;99676.75;4985407;28;45428;-64
2021/10/30 11:31:21;;;;;;;;;4.75;4.75;;;;;23.48;42.36;99663.25;4988067;28;45550;-63
2021/10/30 11:34:00;;;;;;;;;4.75;4.75;;;;;23.48;42.48;99657.13;4986237;28;45359;-63
2021/10/30 11:36:26;;;;;;;;;5.75;5.75;;;;;23.42;42.06;99650.06;4985816;28;45617;-63
2021/10/30 11:38:54;;;;;;;;;4.00;4.00;;;;;23.49;42.43;99661.41;4986772;28;45285;-63